Aktuální počasí v Česku a ve světě - METAR

Seznam meteostanic umístěných nejčasteji na letišti v ČR a ve světě

Vyhledat místa podle abecedy:
A B C D E F G H I J K L M N O P Q R S T U V W X Y Z

Filtrovat:

ID stanice:
a/nebo
Název místa (fulltext):
 
Místo (ID)Naposledy načteno 
Iasi (LRIA) 16.04.2024 05:00 UTC Zobrazit METAR
LRIA 160500Z 28005KT CAVOK 13/10 Q1004
Ibiza (LEIB) 16.04.2024 05:00 UTC Zobrazit METAR
LEIB 160500Z 00000KT CAVOK 12/09 Q1015 NOSIG
Innsbruck (LOWI) 16.04.2024 04:50 UTC Zobrazit METAR
LOWI 160450Z VRB05KT 9999 FEW020 SCT030 BKN050 07/03 Q1006 TEMPO SHRA
Iraklion (LGIR) 16.04.2024 04:50 UTC Zobrazit METAR
LGIR 160450Z 16009KT CAVOK 18/05 Q1014 NOSIG
Isafjordur (BIIS) 15.04.2024 18:00 UTC Zobrazit METAR
BIIS 151800Z 05013G23KT 010V080 9999 -SHSN FEW020 OVC030 00/M05 Q1022
Isla de Pascua (SCIP) 16.04.2024 05:00 UTC Zobrazit METAR
SCIP 160500Z 20005KT 9999 SCT020 SCT040 BKN180 21/19 Q1015 NOSIG
Islamabad (OPRN) 12.01.2022 07:00 UTC Zobrazit METAR
OPRN 120700Z 00000KT 5000 FU FEW120 SCT200 12/04 Q1019 NOSI G TEST WEATHER
Istanbul (LTBA) 16.04.2024 04:50 UTC Zobrazit METAR
LTBA 160450Z 25008KT CAVOK 19/11 Q1011
Ivano-Frankivs'k (UKLI) Zatím nenačteno  
Reklama

Krásné fotografie přírody - (nejen) tapety na pozadí do počítače

Článek
Fotogalerie jarních květin
13. dubna 2023 12:19
Článek
Fotografie slunečné zimní krajiny
7. prosince 2022 17:13
Článek
Obrázky na téma slunečno
25. srpna 2022 05:03
Článek
Obrázky květin
5. června 2022 12:12

Vyhledat
Přidejte si Počasí Slunečno na svůj Facebook
Facebook Počasí Slunečno.cz
Aplikace pro Windows 10/11 nebo chytré mobilní telefony
Stáhněte si aplikaci Slunečno.cz na Microsoft Store Stáhněte si aplikaci Slunečno.cz na Google Play